sensor_id;sensor_type;location;lat;lon;timestamp;temperature;humidity
72930;DHT22;61073;54.260;20.816;2022-08-30T00:00:54;25.30;61.80
72930;DHT22;61073;54.260;20.816;2022-08-30T00:03:42;25.30;61.90
72930;DHT22;61073;54.260;20.816;2022-08-30T00:06:13;25.30;61.90
72930;DHT22;61073;54.260;20.816;2022-08-30T00:08:41;25.30;61.80
72930;DHT22;61073;54.260;20.816;2022-08-30T00:11:09;25.30;62.00
72930;DHT22;61073;54.260;20.816;2022-08-30T00:13:36;25.30;61.70
72930;DHT22;61073;54.260;20.816;2022-08-30T00:16:03;25.30;62.00
72930;DHT22;61073;54.260;20.816;2022-08-30T00:18:32;25.30;62.00
72930;DHT22;61073;54.260;20.816;2022-08-30T00:20:59;25.30;62.00
72930;DHT22;61073;54.260;20.816;2022-08-30T00:23:25;25.30;62.00
72930;DHT22;61073;54.260;20.816;2022-08-30T00:25:52;25.30;61.90
72930;DHT22;61073;54.260;20.816;2022-08-30T00:28:19;25.30;61.90
72930;DHT22;61073;54.260;20.816;2022-08-30T00:30:45;25.30;61.90
72930;DHT22;61073;54.260;20.816;2022-08-30T00:33:12;25.30;61.90
72930;DHT22;61073;54.260;20.816;2022-08-30T00:35:39;25.30;61.90
72930;DHT22;61073;54.260;20.816;2022-08-30T00:38:06;25.30;61.90
72930;DHT22;61073;54.260;20.816;2022-08-30T00:40:34;25.30;62.50
72930;DHT22;61073;54.260;20.816;2022-08-30T00:43:02;25.30;61.90
72930;DHT22;61073;54.260;20.816;2022-08-30T00:45:30;25.30;62.00
72930;DHT22;61073;54.260;20.816;2022-08-30T00:47:57;25.30;61.90
72930;DHT22;61073;54.260;20.816;2022-08-30T00:50:27;25.30;62.00
72930;DHT22;61073;54.260;20.816;2022-08-30T00:52:55;25.30;62.00
72930;DHT22;61073;54.260;20.816;2022-08-30T00:55:23;25.20;61.90
72930;DHT22;61073;54.260;20.816;2022-08-30T00:57:50;25.30;62.00
72930;DHT22;61073;54.260;20.816;2022-08-30T01:00:18;25.20;62.00
72930;DHT22;61073;54.260;20.816;2022-08-30T01:02:44;25.20;61.90
72930;DHT22;61073;54.260;20.816;2022-08-30T01:05:11;25.20;61.90
72930;DHT22;61073;54.260;20.816;2022-08-30T01:07:39;25.20;62.10
72930;DHT22;61073;54.260;20.816;2022-08-30T01:10:08;25.20;62.00
72930;DHT22;61073;54.260;20.816;2022-08-30T01:12:35;25.30;62.10
72930;DHT22;61073;54.260;20.816;2022-08-30T01:15:03;25.20;62.00
72930;DHT22;61073;54.260;20.816;2022-08-30T01:17:30;25.20;62.00
72930;DHT22;61073;54.260;20.816;2022-08-30T01:20:00;25.20;62.10
72930;DHT22;61073;54.260;20.816;2022-08-30T01:25:15;25.20;62.20
72930;DHT22;61073;54.260;20.816;2022-08-30T01:27:44;25.20;62.30
72930;DHT22;61073;54.260;20.816;2022-08-30T01:30:13;25.20;62.10
72930;DHT22;61073;54.260;20.816;2022-08-30T01:32:40;25.20;62.10
72930;DHT22;61073;54.260;20.816;2022-08-30T01:35:09;25.20;62.10
72930;DHT22;61073;54.260;20.816;2022-08-30T01:37:36;25.20;62.00
72930;DHT22;61073;54.260;20.816;2022-08-30T01:40:03;25.20;62.20
72930;DHT22;61073;54.260;20.816;2022-08-30T01:42:29;25.20;62.10
72930;DHT22;61073;54.260;20.816;2022-08-30T01:44:56;25.20;62.10
72930;DHT22;61073;54.260;20.816;2022-08-30T01:47:23;25.20;62.20
72930;DHT22;61073;54.260;20.816;2022-08-30T01:49:49;25.20;62.20
72930;DHT22;61073;54.260;20.816;2022-08-30T01:52:17;25.20;62.20
72930;DHT22;61073;54.260;20.816;2022-08-30T01:54:44;25.20;62.20
72930;DHT22;61073;54.260;20.816;2022-08-30T01:57:13;25.10;62.30
72930;DHT22;61073;54.260;20.816;2022-08-30T01:59:40;25.20;62.20
72930;DHT22;61073;54.260;20.816;2022-08-30T02:02:08;25.20;62.10
72930;DHT22;61073;54.260;20.816;2022-08-30T02:04:35;25.20;62.00
72930;DHT22;61073;54.260;20.816;2022-08-30T02:07:02;25.20;62.10
72930;DHT22;61073;54.260;20.816;2022-08-30T02:09:29;25.10;62.00
72930;DHT22;61073;54.260;20.816;2022-08-30T02:11:55;25.20;62.00
72930;DHT22;61073;54.260;20.816;2022-08-30T02:14:22;25.20;62.10
72930;DHT22;61073;54.260;20.816;2022-08-30T02:16:49;25.20;62.00
72930;DHT22;61073;54.260;20.816;2022-08-30T02:19:16;25.20;62.10
72930;DHT22;61073;54.260;20.816;2022-08-30T02:21:43;25.20;62.10
72930;DHT22;61073;54.260;20.816;2022-08-30T02:24:11;25.20;62.10
72930;DHT22;61073;54.260;20.816;2022-08-30T02:26:37;25.20;62.10
72930;DHT22;61073;54.260;20.816;2022-08-30T02:29:04;25.20;62.10
72930;DHT22;61073;54.260;20.816;2022-08-30T02:31:31;25.20;62.20
72930;DHT22;61073;54.260;20.816;2022-08-30T02:33:57;25.20;62.20
72930;DHT22;61073;54.260;20.816;2022-08-30T02:36:24;25.20;62.10
72930;DHT22;61073;54.260;20.816;2022-08-30T02:38:52;25.20;62.10
72930;DHT22;61073;54.260;20.816;2022-08-30T02:41:19;25.20;62.10
72930;DHT22;61073;54.260;20.816;2022-08-30T02:43:45;25.20;62.00
72930;DHT22;61073;54.260;20.816;2022-08-30T02:46:12;25.20;62.10
72930;DHT22;61073;54.260;20.816;2022-08-30T02:48:39;25.20;62.00
72930;DHT22;61073;54.260;20.816;2022-08-30T02:51:08;25.20;62.00
72930;DHT22;61073;54.260;20.816;2022-08-30T02:53:35;25.20;62.10
72930;DHT22;61073;54.260;20.816;2022-08-30T02:56:02;25.20;62.00
72930;DHT22;61073;54.260;20.816;2022-08-30T02:58:29;25.20;61.70
72930;DHT22;61073;54.260;20.816;2022-08-30T03:00:56;25.20;61.70
72930;DHT22;61073;54.260;20.816;2022-08-30T03:03:23;25.20;61.90
72930;DHT22;61073;54.260;20.816;2022-08-30T03:05:49;25.20;62.00
72930;DHT22;61073;54.260;20.816;2022-08-30T03:08:16;25.20;61.90
72930;DHT22;61073;54.260;20.816;2022-08-30T03:10:42;25.20;61.90
72930;DHT22;61073;54.260;20.816;2022-08-30T03:13:09;25.20;61.90
72930;DHT22;61073;54.260;20.816;2022-08-30T03:15:36;25.20;61.80
72930;DHT22;61073;54.260;20.816;2022-08-30T03:18:03;25.10;61.70
72930;DHT22;61073;54.260;20.816;2022-08-30T03:20:30;25.20;62.00
72930;DHT22;61073;54.260;20.816;2022-08-30T03:22:56;25.20;62.10
72930;DHT22;61073;54.260;20.816;2022-08-30T03:25:23;25.10;61.90
72930;DHT22;61073;54.260;20.816;2022-08-30T03:27:49;25.20;61.60
72930;DHT22;61073;54.260;20.816;2022-08-30T03:30:17;25.20;61.80
72930;DHT22;61073;54.260;20.816;2022-08-30T03:32:44;25.20;61.90
72930;DHT22;61073;54.260;20.816;2022-08-30T03:35:11;25.20;61.90
72930;DHT22;61073;54.260;20.816;2022-08-30T03:37:37;25.20;62.00
72930;DHT22;61073;54.260;20.816;2022-08-30T03:40:05;25.20;61.90
72930;DHT22;61073;54.260;20.816;2022-08-30T03:42:34;25.20;61.70
72930;DHT22;61073;54.260;20.816;2022-08-30T03:45:00;25.20;61.60
72930;DHT22;61073;54.260;20.816;2022-08-30T03:47:28;25.20;61.70
72930;DHT22;61073;54.260;20.816;2022-08-30T03:49:55;25.20;61.60
72930;DHT22;61073;54.260;20.816;2022-08-30T03:52:22;25.20;61.70
72930;DHT22;61073;54.260;20.816;2022-08-30T03:54:49;25.20;61.70
72930;DHT22;61073;54.260;20.816;2022-08-30T03:57:15;25.20;61.80
72930;DHT22;61073;54.260;20.816;2022-08-30T03:59:42;25.20;61.60
72930;DHT22;61073;54.260;20.816;2022-08-30T04:02:09;25.20;61.90
72930;DHT22;61073;54.260;20.816;2022-08-30T04:04:35;25.20;61.60
72930;DHT22;61073;54.260;20.816;2022-08-30T04:07:02;25.20;61.70
72930;DHT22;61073;54.260;20.816;2022-08-30T04:09:28;25.20;61.60
72930;DHT22;61073;54.260;20.816;2022-08-30T04:11:55;25.20;61.70
72930;DHT22;61073;54.260;20.816;2022-08-30T04:14:22;25.20;61.40
72930;DHT22;61073;54.260;20.816;2022-08-30T04:16:48;25.20;61.50
72930;DHT22;61073;54.260;20.816;2022-08-30T04:19:15;25.20;61.70
72930;DHT22;61073;54.260;20.816;2022-08-30T04:21:41;25.20;61.60
72930;DHT22;61073;54.260;20.816;2022-08-30T04:24:10;25.20;61.70
72930;DHT22;61073;54.260;20.816;2022-08-30T04:26:37;25.20;61.60
72930;DHT22;61073;54.260;20.816;2022-08-30T04:29:04;25.20;61.70
72930;DHT22;61073;54.260;20.816;2022-08-30T04:31:31;25.00;61.10
72930;DHT22;61073;54.260;20.816;2022-08-30T04:33:57;24.90;62.20
72930;DHT22;61073;54.260;20.816;2022-08-30T04:36:24;24.70;62.20
72930;DHT22;61073;54.260;20.816;2022-08-30T04:38:50;24.60;62.00
72930;DHT22;61073;54.260;20.816;2022-08-30T04:41:17;24.50;62.20
72930;DHT22;61073;54.260;20.816;2022-08-30T04:43:45;24.40;62.00
72930;DHT22;61073;54.260;20.816;2022-08-30T04:46:12;24.30;62.70
72930;DHT22;61073;54.260;20.816;2022-08-30T04:48:41;24.40;62.50
72930;DHT22;61073;54.260;20.816;2022-08-30T04:51:09;24.40;62.40
72930;DHT22;61073;54.260;20.816;2022-08-30T04:53:36;24.20;62.90
72930;DHT22;61073;54.260;20.816;2022-08-30T04:56:07;24.10;63.30
72930;DHT22;61073;54.260;20.816;2022-08-30T04:58:34;23.80;63.90
72930;DHT22;61073;54.260;20.816;2022-08-30T05:01:01;23.80;64.10
72930;DHT22;61073;54.260;20.816;2022-08-30T05:03:27;23.80;64.20
72930;DHT22;61073;54.260;20.816;2022-08-30T05:05:54;23.90;63.90
72930;DHT22;61073;54.260;20.816;2022-08-30T05:08:21;24.00;63.70
72930;DHT22;61073;54.260;20.816;2022-08-30T05:10:51;24.00;64.00
72930;DHT22;61073;54.260;20.816;2022-08-30T05:13:19;24.00;64.70
72930;DHT22;61073;54.260;20.816;2022-08-30T05:15:46;24.00;64.40
72930;DHT22;61073;54.260;20.816;2022-08-30T05:18:13;24.00;64.10
72930;DHT22;61073;54.260;20.816;2022-08-30T05:20:41;24.10;64.00
72930;DHT22;61073;54.260;20.816;2022-08-30T05:23:08;24.00;64.20
72930;DHT22;61073;54.260;20.816;2022-08-30T05:25:38;24.10;64.20
72930;DHT22;61073;54.260;20.816;2022-08-30T05:28:05;24.20;64.20
72930;DHT22;61073;54.260;20.816;2022-08-30T05:30:32;24.10;64.10
72930;DHT22;61073;54.260;20.816;2022-08-30T05:33:00;24.10;64.20
72930;DHT22;61073;54.260;20.816;2022-08-30T05:35:27;24.30;63.90
72930;DHT22;61073;54.260;20.816;2022-08-30T05:37:53;24.20;63.90
72930;DHT22;61073;54.260;20.816;2022-08-30T05:40:20;24.20;64.20
72930;DHT22;61073;54.260;20.816;2022-08-30T05:42:47;24.20;64.10
72930;DHT22;61073;54.260;20.816;2022-08-30T05:45:14;24.30;63.90
72930;DHT22;61073;54.260;20.816;2022-08-30T05:47:41;24.30;63.80
72930;DHT22;61073;54.260;20.816;2022-08-30T05:50:07;24.30;63.80
72930;DHT22;61073;54.260;20.816;2022-08-30T05:52:35;24.30;63.90
72930;DHT22;61073;54.260;20.816;2022-08-30T05:55:01;24.40;63.50
72930;DHT22;61073;54.260;20.816;2022-08-30T05:57:33;24.40;63.50
72930;DHT22;61073;54.260;20.816;2022-08-30T06:00:00;24.40;63.40
72930;DHT22;61073;54.260;20.816;2022-08-30T06:02:26;24.40;63.40
72930;DHT22;61073;54.260;20.816;2022-08-30T06:04:53;24.40;63.30
72930;DHT22;61073;54.260;20.816;2022-08-30T06:07:20;24.50;63.30
72930;DHT22;61073;54.260;20.816;2022-08-30T06:09:47;24.50;63.20
72930;DHT22;61073;54.260;20.816;2022-08-30T06:12:14;24.60;62.90
72930;DHT22;61073;54.260;20.816;2022-08-30T06:14:40;24.60;63.20
72930;DHT22;61073;54.260;20.816;2022-08-30T06:17:07;24.60;63.00
72930;DHT22;61073;54.260;20.816;2022-08-30T06:19:34;24.60;62.80
72930;DHT22;61073;54.260;20.816;2022-08-30T06:22:00;24.50;63.00
72930;DHT22;61073;54.260;20.816;2022-08-30T06:24:27;24.60;62.90
72930;DHT22;61073;54.260;20.816;2022-08-30T06:27:01;24.60;62.90
72930;DHT22;61073;54.260;20.816;2022-08-30T06:29:27;24.60;62.60
72930;DHT22;61073;54.260;20.816;2022-08-30T06:31:55;24.70;62.60
72930;DHT22;61073;54.260;20.816;2022-08-30T06:34:22;24.70;62.50
72930;DHT22;61073;54.260;20.816;2022-08-30T06:36:48;24.70;62.60
72930;DHT22;61073;54.260;20.816;2022-08-30T06:39:15;24.70;62.40
72930;DHT22;61073;54.260;20.816;2022-08-30T06:41:41;24.80;62.30
72930;DHT22;61073;54.260;20.816;2022-08-30T06:44:08;24.80;62.00
72930;DHT22;61073;54.260;20.816;2022-08-30T06:46:35;24.90;62.00
72930;DHT22;61073;54.260;20.816;2022-08-30T06:49:03;24.80;61.40
72930;DHT22;61073;54.260;20.816;2022-08-30T06:51:34;24.80;61.50
72930;DHT22;61073;54.260;20.816;2022-08-30T06:54:02;24.80;62.00
72930;DHT22;61073;54.260;20.816;2022-08-30T06:56:29;24.90;61.50
72930;DHT22;61073;54.260;20.816;2022-08-30T06:58:56;24.80;60.90
72930;DHT22;61073;54.260;20.816;2022-08-30T07:01:24;24.80;61.20
72930;DHT22;61073;54.260;20.816;2022-08-30T07:03:51;24.80;61.20
72930;DHT22;61073;54.260;20.816;2022-08-30T07:06:18;24.80;61.00
72930;DHT22;61073;54.260;20.816;2022-08-30T07:08:45;24.80;60.80
72930;DHT22;61073;54.260;20.816;2022-08-30T07:11:11;24.80;60.80
72930;DHT22;61073;54.260;20.816;2022-08-30T07:13:38;24.80;60.90
72930;DHT22;61073;54.260;20.816;2022-08-30T07:16:09;24.70;61.00
72930;DHT22;61073;54.260;20.816;2022-08-30T07:18:36;24.80;60.80
72930;DHT22;61073;54.260;20.816;2022-08-30T07:21:22;24.70;61.00
72930;DHT22;61073;54.260;20.816;2022-08-30T07:23:50;24.40;61.10
72930;DHT22;61073;54.260;20.816;2022-08-30T07:26:20;24.20;61.80
72930;DHT22;61073;54.260;20.816;2022-08-30T07:28:47;24.00;62.20
72930;DHT22;61073;54.260;20.816;2022-08-30T07:31:15;24.00;62.20
72930;DHT22;61073;54.260;20.816;2022-08-30T07:33:42;24.00;62.20
72930;DHT22;61073;54.260;20.816;2022-08-30T07:36:09;24.00;62.10
72930;DHT22;61073;54.260;20.816;2022-08-30T07:38:36;24.10;62.10
72930;DHT22;61073;54.260;20.816;2022-08-30T07:41:03;24.10;61.80
72930;DHT22;61073;54.260;20.816;2022-08-30T07:43:30;24.20;61.40
72930;DHT22;61073;54.260;20.816;2022-08-30T07:46:03;24.30;61.20
72930;DHT22;61073;54.260;20.816;2022-08-30T07:48:30;24.40;61.00
72930;DHT22;61073;54.260;20.816;2022-08-30T07:50:57;24.50;60.80
72930;DHT22;61073;54.260;20.816;2022-08-30T07:53:26;24.60;60.70
72930;DHT22;61073;54.260;20.816;2022-08-30T08:08:38;24.60;60.00
72930;DHT22;61073;54.260;20.816;2022-08-30T08:11:07;24.70;60.00
72930;DHT22;61073;54.260;20.816;2022-08-30T08:13:34;24.80;59.70
72930;DHT22;61073;54.260;20.816;2022-08-30T08:16:01;24.80;59.70
72930;DHT22;61073;54.260;20.816;2022-08-30T08:18:28;24.80;59.40
72930;DHT22;61073;54.260;20.816;2022-08-30T08:20:54;24.90;59.40
72930;DHT22;61073;54.260;20.816;2022-08-30T08:23:22;24.90;59.40
72930;DHT22;61073;54.260;20.816;2022-08-30T08:25:49;24.90;59.40
72930;DHT22;61073;54.260;20.816;2022-08-30T08:28:16;24.90;59.40
72930;DHT22;61073;54.260;20.816;2022-08-30T08:30:43;24.90;59.30
72930;DHT22;61073;54.260;20.816;2022-08-30T08:33:13;24.90;59.20
72930;DHT22;61073;54.260;20.816;2022-08-30T08:35:40;25.00;58.60
72930;DHT22;61073;54.260;20.816;2022-08-30T08:38:08;25.00;58.60
72930;DHT22;61073;54.260;20.816;2022-08-30T08:43:27;25.10;58.50
72930;DHT22;61073;54.260;20.816;2022-08-30T08:51:01;24.90;58.40
72930;DHT22;61073;54.260;20.816;2022-08-30T08:56:42;24.80;58.70
72930;DHT22;61073;54.260;20.816;2022-08-30T08:59:10;24.80;58.80
72930;DHT22;61073;54.260;20.816;2022-08-30T09:01:37;24.70;59.00
72930;DHT22;61073;54.260;20.816;2022-08-30T09:04:12;24.70;59.10
72930;DHT22;61073;54.260;20.816;2022-08-30T09:06:59;24.70;59.10
72930;DHT22;61073;54.260;20.816;2022-08-30T09:09:33;24.60;59.40
72930;DHT22;61073;54.260;20.816;2022-08-30T09:12:01;24.60;59.60
72930;DHT22;61073;54.260;20.816;2022-08-30T09:14:33;24.60;60.10
72930;DHT22;61073;54.260;20.816;2022-08-30T09:19:34;24.60;59.70
72930;DHT22;61073;54.260;20.816;2022-08-30T09:22:26;24.60;59.70
72930;DHT22;61073;54.260;20.816;2022-08-30T09:27:32;24.60;59.80
72930;DHT22;61073;54.260;20.816;2022-08-30T09:30:09;24.60;59.60
72930;DHT22;61073;54.260;20.816;2022-08-30T09:32:41;24.50;59.00
72930;DHT22;61073;54.260;20.816;2022-08-30T09:35:16;24.40;59.00
72930;DHT22;61073;54.260;20.816;2022-08-30T09:37:50;24.50;59.00
72930;DHT22;61073;54.260;20.816;2022-08-30T09:40:40;24.50;59.20
72930;DHT22;61073;54.260;20.816;2022-08-30T09:43:11;24.40;59.10
72930;DHT22;61073;54.260;20.816;2022-08-30T09:46:27;24.50;59.50
72930;DHT22;61073;54.260;20.816;2022-08-30T09:53:51;24.30;58.50
72930;DHT22;61073;54.260;20.816;2022-08-30T10:05:48;24.00;60.00
72930;DHT22;61073;54.260;20.816;2022-08-30T10:14:35;24.20;62.20
72930;DHT22;61073;54.260;20.816;2022-08-30T10:17:33;24.50;62.70
72930;DHT22;61073;54.260;20.816;2022-08-30T10:31:47;25.40;61.40
72930;DHT22;61073;54.260;20.816;2022-08-30T10:34:28;25.40;60.80
72930;DHT22;61073;54.260;20.816;2022-08-30T10:37:07;25.50;60.40
72930;DHT22;61073;54.260;20.816;2022-08-30T10:39:45;25.60;59.80
72930;DHT22;61073;54.260;20.816;2022-08-30T10:42:19;25.60;60.30
72930;DHT22;61073;54.260;20.816;2022-08-30T10:44:58;25.70;60.00
72930;DHT22;61073;54.260;20.816;2022-08-30T10:50:19;25.70;59.10
72930;DHT22;61073;54.260;20.816;2022-08-30T10:55:29;25.80;59.30
72930;DHT22;61073;54.260;20.816;2022-08-30T10:58:04;25.80;60.00
72930;DHT22;61073;54.260;20.816;2022-08-30T15:35:22;26.20;47.50
72930;DHT22;61073;54.260;20.816;2022-08-30T15:37:48;26.10;47.50
72930;DHT22;61073;54.260;20.816;2022-08-30T15:40:15;26.10;47.70
72930;DHT22;61073;54.260;20.816;2022-08-30T15:42:42;26.10;47.50
72930;DHT22;61073;54.260;20.816;2022-08-30T15:45:09;26.10;47.80
72930;DHT22;61073;54.260;20.816;2022-08-30T15:47:35;26.00;47.70
72930;DHT22;61073;54.260;20.816;2022-08-30T15:50:04;26.00;47.40
72930;DHT22;61073;54.260;20.816;2022-08-30T15:52:31;25.90;47.50
72930;DHT22;61073;54.260;20.816;2022-08-30T15:54:58;25.90;47.70
72930;DHT22;61073;54.260;20.816;2022-08-30T15:57:25;25.90;47.90
72930;DHT22;61073;54.260;20.816;2022-08-30T15:59:52;25.80;48.00
72930;DHT22;61073;54.260;20.816;2022-08-30T16:02:20;25.80;48.10
72930;DHT22;61073;54.260;20.816;2022-08-30T16:04:47;25.90;48.20
72930;DHT22;61073;54.260;20.816;2022-08-30T16:07:14;25.90;48.20
72930;DHT22;61073;54.260;20.816;2022-08-30T16:09:40;25.90;48.10
72930;DHT22;61073;54.260;20.816;2022-08-30T16:12:07;25.90;48.20
72930;DHT22;61073;54.260;20.816;2022-08-30T16:14:34;26.00;48.40
72930;DHT22;61073;54.260;20.816;2022-08-30T16:17:01;25.90;47.70
72930;DHT22;61073;54.260;20.816;2022-08-30T16:19:28;25.90;48.30
72930;DHT22;61073;54.260;20.816;2022-08-30T16:21:55;26.00;48.10
72930;DHT22;61073;54.260;20.816;2022-08-30T16:24:22;26.00;48.40
72930;DHT22;61073;54.260;20.816;2022-08-30T16:26:49;26.00;48.00
72930;DHT22;61073;54.260;20.816;2022-08-30T16:29:15;26.00;47.80
72930;DHT22;61073;54.260;20.816;2022-08-30T16:31:42;26.00;47.90
72930;DHT22;61073;54.260;20.816;2022-08-30T16:34:10;26.00;48.10
72930;DHT22;61073;54.260;20.816;2022-08-30T16:36:37;26.00;47.80
72930;DHT22;61073;54.260;20.816;2022-08-30T16:39:06;26.00;47.70
72930;DHT22;61073;54.260;20.816;2022-08-30T16:41:35;26.00;47.70
72930;DHT22;61073;54.260;20.816;2022-08-30T16:44:02;26.00;48.00
72930;DHT22;61073;54.260;20.816;2022-08-30T16:46:29;25.90;47.70
72930;DHT22;61073;54.260;20.816;2022-08-30T16:48:57;25.80;47.90
72930;DHT22;61073;54.260;20.816;2022-08-30T16:51:28;25.80;48.30
72930;DHT22;61073;54.260;20.816;2022-08-30T16:53:58;25.80;48.00
72930;DHT22;61073;54.260;20.816;2022-08-30T16:56:27;25.70;48.30
72930;DHT22;61073;54.260;20.816;2022-08-30T16:58:57;25.80;48.80
72930;DHT22;61073;54.260;20.816;2022-08-30T17:01:29;25.80;48.70
72930;DHT22;61073;54.260;20.816;2022-08-30T17:03:57;25.80;48.90
72930;DHT22;61073;54.260;20.816;2022-08-30T17:06:23;25.70;48.60
72930;DHT22;61073;54.260;20.816;2022-08-30T17:08:50;25.80;48.90
72930;DHT22;61073;54.260;20.816;2022-08-30T17:11:18;25.70;48.90
72930;DHT22;61073;54.260;20.816;2022-08-30T17:13:44;25.70;49.20
72930;DHT22;61073;54.260;20.816;2022-08-30T17:16:11;25.70;49.50
72930;DHT22;61073;54.260;20.816;2022-08-30T17:18:38;25.70;49.30
72930;DHT22;61073;54.260;20.816;2022-08-30T17:21:05;25.70;49.60
72930;DHT22;61073;54.260;20.816;2022-08-30T17:23:33;25.60;49.20
72930;DHT22;61073;54.260;20.816;2022-08-30T17:25:59;25.60;49.60
72930;DHT22;61073;54.260;20.816;2022-08-30T17:28:27;25.60;49.80
72930;DHT22;61073;54.260;20.816;2022-08-30T17:30:54;25.60;49.50
72930;DHT22;61073;54.260;20.816;2022-08-30T17:33:21;25.60;49.70
72930;DHT22;61073;54.260;20.816;2022-08-30T17:35:47;25.60;49.90
72930;DHT22;61073;54.260;20.816;2022-08-30T17:38:15;25.50;49.70
72930;DHT22;61073;54.260;20.816;2022-08-30T17:40:41;25.50;50.00
72930;DHT22;61073;54.260;20.816;2022-08-30T17:43:09;25.50;50.10
72930;DHT22;61073;54.260;20.816;2022-08-30T17:45:35;25.50;50.20
72930;DHT22;61073;54.260;20.816;2022-08-30T17:48:03;25.50;49.90
72930;DHT22;61073;54.260;20.816;2022-08-30T17:50:29;25.50;50.30
72930;DHT22;61073;54.260;20.816;2022-08-30T17:52:56;25.50;50.30
72930;DHT22;61073;54.260;20.816;2022-08-30T17:55:23;25.50;50.20
72930;DHT22;61073;54.260;20.816;2022-08-30T17:57:50;25.40;50.40
72930;DHT22;61073;54.260;20.816;2022-08-30T18:00:22;25.40;50.40
72930;DHT22;61073;54.260;20.816;2022-08-30T18:02:49;25.40;50.20
72930;DHT22;61073;54.260;20.816;2022-08-30T18:05:16;25.40;50.70
72930;DHT22;61073;54.260;20.816;2022-08-30T18:07:42;25.40;50.60
72930;DHT22;61073;54.260;20.816;2022-08-30T18:10:09;25.30;50.30
72930;DHT22;61073;54.260;20.816;2022-08-30T18:12:36;25.40;50.90
72930;DHT22;61073;54.260;20.816;2022-08-30T18:15:03;25.40;50.70
72930;DHT22;61073;54.260;20.816;2022-08-30T18:17:29;25.30;50.50
72930;DHT22;61073;54.260;20.816;2022-08-30T18:19:56;25.30;50.70
72930;DHT22;61073;54.260;20.816;2022-08-30T18:22:23;25.30;50.80
72930;DHT22;61073;54.260;20.816;2022-08-30T18:24:49;25.30;51.10
72930;DHT22;61073;54.260;20.816;2022-08-30T18:27:16;25.30;50.80
72930;DHT22;61073;54.260;20.816;2022-08-30T18:29:43;25.30;50.80
72930;DHT22;61073;54.260;20.816;2022-08-30T18:32:09;25.30;51.20
72930;DHT22;61073;54.260;20.816;2022-08-30T18:34:36;25.30;51.00
72930;DHT22;61073;54.260;20.816;2022-08-30T18:37:03;25.30;51.10
72930;DHT22;61073;54.260;20.816;2022-08-30T18:39:29;25.30;51.10
72930;DHT22;61073;54.260;20.816;2022-08-30T18:41:56;25.30;51.30
72930;DHT22;61073;54.260;20.816;2022-08-30T18:44:23;25.20;51.30
72930;DHT22;61073;54.260;20.816;2022-08-30T18:46:53;25.20;51.30
72930;DHT22;61073;54.260;20.816;2022-08-30T18:49:20;25.20;51.30
72930;DHT22;61073;54.260;20.816;2022-08-30T18:51:46;25.20;51.20
72930;DHT22;61073;54.260;20.816;2022-08-30T18:54:13;25.30;51.50
72930;DHT22;61073;54.260;20.816;2022-08-30T18:56:39;25.20;51.20
72930;DHT22;61073;54.260;20.816;2022-08-30T18:59:06;25.20;51.40
72930;DHT22;61073;54.260;20.816;2022-08-30T19:01:33;25.20;51.40
72930;DHT22;61073;54.260;20.816;2022-08-30T19:04:01;25.20;51.70
72930;DHT22;61073;54.260;20.816;2022-08-30T19:06:28;25.20;51.40
72930;DHT22;61073;54.260;20.816;2022-08-30T19:08:55;25.20;51.50
72930;DHT22;61073;54.260;20.816;2022-08-30T19:11:21;25.10;51.50
72930;DHT22;61073;54.260;20.816;2022-08-30T19:13:49;25.20;51.50
72930;DHT22;61073;54.260;20.816;2022-08-30T19:16:15;25.10;51.50
72930;DHT22;61073;54.260;20.816;2022-08-30T19:18:42;25.10;51.50
72930;DHT22;61073;54.260;20.816;2022-08-30T19:21:09;25.10;51.50
72930;DHT22;61073;54.260;20.816;2022-08-30T19:23:36;25.10;52.40
72930;DHT22;61073;54.260;20.816;2022-08-30T19:26:03;25.10;51.70
72930;DHT22;61073;54.260;20.816;2022-08-30T19:28:30;25.10;51.70
72930;DHT22;61073;54.260;20.816;2022-08-30T19:30:59;25.10;51.90
72930;DHT22;61073;54.260;20.816;2022-08-30T19:33:25;25.10;52.10
72930;DHT22;61073;54.260;20.816;2022-08-30T19:35:52;25.10;51.90
72930;DHT22;61073;54.260;20.816;2022-08-30T19:38:19;25.00;51.90
72930;DHT22;61073;54.260;20.816;2022-08-30T19:40:46;25.00;51.80
72930;DHT22;61073;54.260;20.816;2022-08-30T19:43:14;25.00;52.00
72930;DHT22;61073;54.260;20.816;2022-08-30T19:45:41;25.00;52.10
72930;DHT22;61073;54.260;20.816;2022-08-30T19:48:07;25.00;52.00
72930;DHT22;61073;54.260;20.816;2022-08-30T19:50:34;25.00;51.80
72930;DHT22;61073;54.260;20.816;2022-08-30T19:53:03;25.00;52.10
72930;DHT22;61073;54.260;20.816;2022-08-30T19:55:30;25.00;52.20
72930;DHT22;61073;54.260;20.816;2022-08-30T19:57:57;24.90;52.10
72930;DHT22;61073;54.260;20.816;2022-08-30T20:00:24;24.90;52.00
72930;DHT22;61073;54.260;20.816;2022-08-30T20:02:51;24.90;52.20
72930;DHT22;61073;54.260;20.816;2022-08-30T20:05:18;24.90;52.20
72930;DHT22;61073;54.260;20.816;2022-08-30T20:07:45;24.90;52.10
72930;DHT22;61073;54.260;20.816;2022-08-30T20:10:13;24.90;52.30
72930;DHT22;61073;54.260;20.816;2022-08-30T20:12:41;24.90;52.50
72930;DHT22;61073;54.260;20.816;2022-08-30T20:15:14;24.90;52.40
72930;DHT22;61073;54.260;20.816;2022-08-30T20:17:42;24.90;52.50
72930;DHT22;61073;54.260;20.816;2022-08-30T20:20:25;24.90;52.50
72930;DHT22;61073;54.260;20.816;2022-08-30T20:22:52;24.90;52.60
72930;DHT22;61073;54.260;20.816;2022-08-30T20:25:19;24.90;52.60
72930;DHT22;61073;54.260;20.816;2022-08-30T20:27:47;24.80;52.60
72930;DHT22;61073;54.260;20.816;2022-08-30T20:30:16;24.80;52.80
72930;DHT22;61073;54.260;20.816;2022-08-30T20:32:43;24.80;52.60
72930;DHT22;61073;54.260;20.816;2022-08-30T20:35:13;24.80;52.90
72930;DHT22;61073;54.260;20.816;2022-08-30T20:37:42;24.80;52.70
72930;DHT22;61073;54.260;20.816;2022-08-30T20:40:10;24.80;52.70
72930;DHT22;61073;54.260;20.816;2022-08-30T20:42:40;24.70;53.00
72930;DHT22;61073;54.260;20.816;2022-08-30T20:45:11;24.70;52.90
72930;DHT22;61073;54.260;20.816;2022-08-30T20:47:39;24.70;53.00
72930;DHT22;61073;54.260;20.816;2022-08-30T20:50:08;24.80;52.80
72930;DHT22;61073;54.260;20.816;2022-08-30T20:52:35;24.70;53.00
72930;DHT22;61073;54.260;20.816;2022-08-30T20:55:02;24.70;52.90
72930;DHT22;61073;54.260;20.816;2022-08-30T20:57:30;24.70;53.00
72930;DHT22;61073;54.260;20.816;2022-08-30T20:59:58;24.70;53.00
72930;DHT22;61073;54.260;20.816;2022-08-30T21:02:24;24.70;53.20
72930;DHT22;61073;54.260;20.816;2022-08-30T21:04:51;24.70;53.10